createdAt,value
2017-10-19T00:01:14.526Z,98.60
2017-10-19T00:03:42.878Z,98.50
2017-10-19T00:06:11.173Z,98.60
2017-10-19T00:08:39.515Z,98.50
2017-10-19T00:11:07.952Z,97.40
2017-10-19T00:13:36.258Z,97.10
2017-10-19T00:16:04.570Z,97.20
2017-10-19T00:18:32.922Z,96.20
2017-10-19T00:21:01.245Z,97.30
2017-10-19T00:23:30.350Z,98.30
2017-10-19T00:25:58.652Z,98.30
2017-10-19T00:28:27.005Z,99.40
2017-10-19T00:30:56.114Z,99.90
2017-10-19T00:33:24.422Z,99.90
2017-10-19T00:35:52.834Z,99.90
2017-10-19T00:38:21.136Z,99.90
2017-10-19T00:40:50.202Z,99.90
2017-10-19T00:43:19.299Z,99.90
2017-10-19T00:45:47.630Z,99.90
2017-10-19T00:48:16.707Z,98.70
2017-10-19T00:50:45.804Z,97.90
2017-10-19T00:53:14.104Z,97.90
2017-10-19T00:55:42.409Z,97.60
2017-10-19T00:58:11.523Z,98.00
2017-10-19T01:00:39.865Z,98.10
2017-10-19T01:03:08.899Z,98.50
2017-10-19T01:05:39.001Z,99.00
2017-10-19T01:08:08.382Z,98.90
2017-10-19T01:10:39.115Z,99.10
2017-10-19T01:13:08.975Z,99.20
2017-10-19T01:15:37.338Z,99.20
2017-10-19T01:18:05.739Z,98.90
2017-10-19T01:20:34.795Z,99.30
2017-10-19T01:23:03.117Z,99.30
2017-10-19T01:25:31.447Z,99.20
2017-10-19T01:27:59.809Z,98.90
2017-10-19T01:30:28.129Z,99.10
2017-10-19T01:32:56.466Z,98.90
2017-10-19T01:35:25.569Z,99.50
2017-10-19T01:37:53.886Z,99.50
2017-10-19T01:40:22.222Z,99.90
2017-10-19T01:42:50.585Z,99.80
2017-10-19T01:45:18.905Z,99.80
2017-10-19T01:47:47.327Z,99.80
2017-10-19T01:50:15.704Z,99.20
2017-10-19T01:52:44.808Z,99.40
2017-10-19T01:55:13.153Z,99.40
2017-10-19T01:57:42.210Z,99.90
2017-10-19T02:00:10.504Z,99.90
2017-10-19T02:02:38.829Z,99.90
2017-10-19T02:05:07.142Z,99.90
2017-10-19T02:07:35.452Z,99.90
2017-10-19T02:10:03.773Z,99.90
2017-10-19T02:12:32.068Z,99.90
2017-10-19T02:15:00.380Z,99.90
2017-10-19T02:17:28.694Z,99.70
2017-10-19T02:19:57.795Z,99.60
2017-10-19T02:22:26.094Z,99.50
2017-10-19T02:24:54.381Z,99.80
2017-10-19T02:27:23.501Z,99.80
2017-10-19T02:29:51.789Z,99.70
2017-10-19T02:32:20.095Z,99.90
2017-10-19T02:34:48.418Z,99.90
2017-10-19T02:37:17.632Z,99.90
2017-10-19T02:39:46.006Z,99.90
2017-10-19T02:42:14.319Z,99.90
2017-10-19T02:44:47.168Z,99.90
2017-10-19T02:47:24.175Z,99.90
2017-10-19T02:49:52.499Z,99.90
2017-10-19T02:52:20.850Z,99.90
2017-10-19T02:54:49.167Z,99.90
2017-10-19T02:57:18.046Z,99.90
2017-10-19T02:59:46.383Z,99.90
2017-10-19T03:02:14.726Z,99.90
2017-10-19T03:04:44.020Z,99.90
2017-10-19T03:07:12.298Z,99.90
2017-10-19T03:09:40.599Z,99.90
2017-10-19T03:12:08.876Z,99.90
2017-10-19T03:14:37.154Z,99.90
2017-10-19T03:17:07.412Z,99.90
2017-10-19T03:19:39.466Z,99.90
2017-10-19T03:22:09.078Z,99.90
2017-10-19T03:24:37.436Z,99.90
2017-10-19T03:27:07.497Z,99.90
2017-10-19T03:29:35.926Z,99.90
2017-10-19T03:32:04.977Z,99.90
2017-10-19T03:34:34.847Z,99.90
2017-10-19T03:37:03.135Z,99.90
2017-10-19T03:39:31.451Z,99.90
2017-10-19T03:41:59.759Z,99.90
2017-10-19T03:44:29.166Z,99.90
2017-10-19T03:46:58.260Z,99.90
2017-10-19T03:49:26.541Z,99.90
2017-10-19T03:51:55.570Z,99.90
2017-10-19T03:54:23.974Z,99.90
2017-10-19T03:56:52.292Z,99.90
2017-10-19T03:59:20.611Z,99.90
2017-10-19T04:01:50.557Z,99.90
2017-10-19T04:04:18.855Z,99.90
2017-10-19T04:06:47.952Z,99.90
2017-10-19T04:09:16.237Z,99.90
2017-10-19T04:11:44.662Z,99.90
2017-10-19T04:14:12.948Z,99.90
2017-10-19T04:16:41.247Z,99.90
2017-10-19T04:19:09.548Z,99.90
2017-10-19T04:21:37.874Z,99.90
2017-10-19T04:24:06.156Z,99.90
2017-10-19T04:26:34.470Z,99.90
2017-10-19T04:29:02.751Z,99.90
2017-10-19T04:31:31.070Z,99.90
2017-10-19T04:34:00.233Z,99.90
2017-10-19T04:36:29.302Z,99.90
2017-10-19T04:38:57.636Z,99.90
2017-10-19T04:41:25.955Z,99.90
2017-10-19T04:43:54.999Z,99.90
2017-10-19T04:46:23.316Z,99.90
2017-10-19T04:48:52.651Z,99.90
2017-10-19T04:51:21.860Z,99.90
2017-10-19T04:53:50.163Z,99.90
2017-10-19T04:56:19.287Z,99.90
2017-10-19T04:58:47.695Z,99.90
2017-10-19T05:01:16.563Z,99.90
2017-10-19T05:03:45.626Z,99.90
2017-10-19T05:06:13.922Z,99.90
2017-10-19T05:08:42.198Z,99.90
2017-10-19T05:11:10.498Z,99.90
2017-10-19T05:13:39.423Z,99.90
2017-10-19T05:16:08.909Z,99.90
2017-10-19T05:18:37.247Z,99.90
2017-10-19T05:21:05.583Z,99.90
2017-10-19T05:23:35.832Z,99.90
2017-10-19T05:26:05.071Z,99.90
2017-10-19T05:28:33.380Z,99.90
2017-10-19T05:31:01.716Z,99.90
2017-10-19T05:33:32.480Z,99.90
2017-10-19T05:36:01.582Z,99.90
2017-10-19T05:38:29.886Z,99.90
2017-10-19T05:40:58.419Z,99.90
2017-10-19T05:43:28.237Z,99.90
2017-10-19T05:45:58.398Z,99.90
2017-10-19T05:48:31.321Z,99.90
2017-10-19T05:50:59.852Z,99.90
2017-10-19T05:53:29.017Z,99.90
2017-10-19T05:55:58.815Z,99.90
2017-10-19T05:58:27.652Z,99.90
2017-10-19T06:00:58.643Z,99.90
2017-10-19T06:03:28.251Z,99.90
2017-10-19T06:05:57.550Z,99.90
2017-10-19T06:08:25.855Z,99.90
2017-10-19T06:10:57.921Z,99.90
2017-10-19T06:13:26.326Z,99.90
2017-10-19T06:15:54.623Z,99.90
2017-10-19T06:18:24.056Z,99.90
2017-10-19T06:20:54.341Z,99.90
2017-10-19T06:23:23.416Z,99.90
2017-10-19T06:25:52.544Z,99.90
2017-10-19T06:28:20.866Z,99.90
2017-10-19T06:30:50.066Z,99.90
2017-10-19T06:33:18.387Z,99.90
2017-10-19T06:35:48.034Z,99.90
2017-10-19T06:38:16.587Z,99.90
2017-10-19T06:40:47.890Z,99.90
2017-10-19T06:43:16.237Z,99.90
2017-10-19T06:45:44.581Z,99.90
2017-10-19T06:48:14.568Z,99.90
2017-10-19T06:50:53.839Z,99.90
2017-10-19T06:53:23.109Z,99.90
2017-10-19T06:55:55.832Z,99.90
2017-10-19T06:58:32.480Z,99.90
2017-10-19T07:01:02.459Z,99.90
2017-10-19T07:03:32.407Z,99.90
2017-10-19T07:06:01.704Z,99.90
2017-10-19T07:08:30.009Z,99.90
2017-10-19T07:10:58.312Z,99.90
2017-10-19T07:13:27.801Z,99.90
2017-10-19T07:15:58.461Z,99.90
2017-10-19T07:18:26.802Z,99.90
2017-10-19T07:20:56.122Z,99.90
2017-10-19T07:23:25.796Z,99.90
2017-10-19T07:25:55.681Z,99.90
2017-10-19T07:28:23.999Z,99.90
2017-10-19T07:30:52.540Z,99.90
2017-10-19T07:33:21.625Z,99.90
2017-10-19T07:35:49.932Z,99.90
2017-10-19T07:38:19.651Z,99.90
2017-10-19T07:40:50.915Z,99.90
2017-10-19T07:43:19.881Z,99.90
2017-10-19T07:45:48.176Z,99.10
2017-10-19T07:48:16.494Z,96.50
2017-10-19T07:50:44.785Z,94.60
2017-10-19T07:53:13.126Z,92.50
2017-10-19T07:55:41.455Z,89.40
2017-10-19T07:58:09.791Z,88.20
2017-10-19T08:00:38.101Z,85.10
2017-10-19T08:03:06.406Z,82.00
2017-10-19T08:05:34.719Z,78.30
2017-10-19T08:08:05.212Z,77.60
2017-10-19T08:10:34.298Z,73.20
2017-10-19T08:13:02.974Z,73.20
2017-10-19T08:15:36.633Z,69.90
2017-10-19T08:18:05.143Z,67.50
2017-10-19T08:20:33.499Z,67.10
2017-10-19T08:23:02.122Z,66.30
2017-10-19T08:25:31.439Z,66.20
2017-10-19T08:28:01.661Z,66.20
2017-10-19T08:30:31.005Z,65.10
2017-10-19T08:33:01.955Z,65.10
2017-10-19T08:35:34.382Z,66.20
2017-10-19T08:38:02.801Z,65.30
2017-10-19T08:40:32.623Z,68.10
2017-10-19T08:43:01.955Z,68.30
2017-10-19T08:45:30.298Z,66.70
2017-10-19T08:47:59.888Z,65.70
2017-10-19T08:50:29.086Z,65.60
2017-10-19T08:52:57.999Z,61.90
2017-10-19T08:55:26.321Z,60.40
2017-10-19T08:57:57.400Z,60.60
2017-10-19T09:00:30.901Z,60.70
2017-10-19T09:02:59.268Z,60.70
2017-10-19T09:05:27.585Z,61.00
2017-10-19T09:07:55.937Z,58.50
2017-10-19T09:10:24.293Z,56.00
2017-10-19T09:12:53.238Z,53.90
2017-10-19T09:15:22.907Z,53.80
2017-10-19T09:17:54.313Z,54.10
2017-10-19T09:20:31.776Z,54.00
2017-10-19T09:23:10.943Z,57.00
2017-10-19T09:25:44.037Z,57.10
2017-10-19T09:28:18.067Z,57.50
2017-10-19T09:30:46.501Z,57.70
2017-10-19T09:33:16.410Z,56.10
2017-10-19T09:35:53.588Z,56.20
2017-10-19T09:38:24.436Z,55.90
2017-10-19T09:41:03.372Z,54.00
2017-10-19T09:43:39.014Z,53.80
2017-10-19T09:46:07.410Z,54.00
2017-10-19T09:48:39.200Z,53.50
2017-10-19T09:51:19.121Z,53.50
2017-10-19T09:53:48.046Z,55.40
2017-10-19T09:56:18.565Z,55.80
2017-10-19T09:58:46.860Z,52.90
2017-10-19T10:01:18.468Z,51.30
2017-10-19T10:03:49.006Z,50.90
2017-10-19T10:06:18.067Z,50.30
2017-10-19T10:08:47.016Z,48.90
2017-10-19T10:11:15.334Z,50.20
2017-10-19T10:13:43.658Z,49.00
2017-10-19T10:16:12.022Z,48.90
2017-10-19T10:18:40.311Z,47.90
2017-10-19T10:21:08.715Z,49.10
2017-10-19T10:23:37.048Z,46.20
2017-10-19T10:26:05.441Z,46.40
2017-10-19T10:28:33.735Z,46.70
2017-10-19T10:31:02.138Z,47.50
2017-10-19T10:33:30.550Z,48.70
2017-10-19T10:35:59.641Z,48.20
2017-10-19T10:38:29.143Z,48.30
2017-10-19T10:40:59.818Z,47.60
2017-10-19T10:43:28.914Z,47.10
2017-10-19T10:45:57.262Z,47.20
2017-10-19T10:48:25.583Z,47.80
2017-10-19T10:50:54.491Z,46.20
2017-10-19T10:53:22.811Z,44.90
2017-10-19T10:55:52.395Z,45.60
2017-10-19T10:58:21.548Z,48.30
2017-10-19T11:00:51.408Z,45.30
2017-10-19T11:03:21.266Z,46.20
2017-10-19T11:05:49.677Z,49.50
2017-10-19T11:08:18.020Z,48.50
2017-10-19T11:10:46.319Z,46.40
2017-10-19T11:13:18.332Z,47.20
2017-10-19T11:18:19.961Z,48.20
2017-10-19T11:20:48.250Z,49.00
2017-10-19T11:23:16.628Z,50.20
2017-10-19T11:25:45.027Z,50.10
2017-10-19T11:28:14.944Z,48.50
2017-10-19T11:30:44.191Z,48.30
2017-10-19T11:33:13.276Z,49.00
2017-10-19T11:35:41.611Z,49.00
2017-10-19T11:38:09.955Z,48.20
2017-10-19T11:40:39.805Z,47.00
2017-10-19T11:43:08.995Z,46.60
2017-10-19T11:45:38.016Z,46.60
2017-10-19T11:48:07.873Z,46.40
2017-10-19T11:50:36.814Z,46.40
2017-10-19T11:53:05.117Z,44.60
2017-10-19T11:55:33.414Z,45.20
2017-10-19T11:58:01.721Z,45.60
2017-10-19T12:00:30.045Z,46.60
2017-10-19T12:02:58.355Z,46.20
2017-10-19T12:05:28.515Z,46.60
2017-10-19T12:07:56.868Z,46.50
2017-10-19T12:10:25.167Z,46.30
2017-10-19T12:12:54.268Z,44.40
2017-10-19T12:15:23.352Z,45.90
2017-10-19T12:17:51.705Z,45.80
2017-10-19T12:20:20.850Z,45.60
2017-10-19T12:22:50.451Z,46.00
2017-10-19T12:25:19.547Z,46.50
2017-10-19T12:27:53.554Z,46.00
2017-10-19T12:30:22.035Z,45.90
2017-10-19T12:33:08.196Z,45.00
2017-10-19T12:35:36.646Z,43.70
2017-10-19T12:38:05.022Z,42.00
2017-10-19T12:40:34.111Z,44.10
2017-10-19T12:43:03.178Z,44.70
2017-10-19T12:45:31.462Z,44.20
2017-10-19T12:47:59.815Z,45.10
2017-10-19T12:50:28.196Z,48.30
2017-10-19T12:52:56.516Z,46.00
2017-10-19T12:55:25.660Z,46.10
2017-10-19T12:57:54.897Z,46.10
2017-10-19T13:00:23.209Z,45.00
2017-10-19T13:02:52.811Z,43.00
2017-10-19T13:05:21.132Z,43.00
2017-10-19T13:07:50.869Z,42.20
2017-10-19T13:10:20.438Z,42.20
2017-10-19T13:12:49.588Z,42.40
2017-10-19T13:15:19.500Z,44.80
2017-10-19T13:17:49.330Z,45.20
2017-10-19T13:20:17.686Z,45.00
2017-10-19T13:22:45.970Z,42.90
2017-10-19T13:25:14.280Z,42.80
2017-10-19T13:27:42.623Z,41.90
2017-10-19T13:30:10.940Z,43.10
2017-10-19T13:32:39.381Z,43.90
2017-10-19T13:35:09.308Z,42.10
2017-10-19T13:37:38.095Z,42.00
2017-10-19T13:40:07.273Z,42.80
2017-10-19T13:42:40.011Z,43.30
2017-10-19T13:45:15.029Z,41.70
2017-10-19T13:47:45.579Z,43.60
2017-10-19T13:50:13.944Z,45.10
2017-10-19T13:52:44.566Z,45.80
2017-10-19T13:55:14.504Z,45.10
2017-10-19T13:57:44.287Z,45.60
2017-10-19T14:00:12.587Z,44.70
2017-10-19T14:02:41.679Z,44.50
2017-10-19T14:05:09.958Z,44.60
2017-10-19T14:07:40.505Z,43.50
2017-10-19T14:10:08.895Z,44.30
2017-10-19T14:12:37.570Z,44.20
2017-10-19T14:15:06.545Z,43.40
2017-10-19T14:17:34.879Z,42.80
2017-10-19T14:20:03.245Z,43.90
2017-10-19T14:22:31.533Z,44.40
2017-10-19T14:24:59.909Z,45.50
2017-10-19T14:27:29.028Z,47.60
2017-10-19T14:29:59.588Z,48.10
2017-10-19T14:32:28.650Z,47.30
2017-10-19T14:34:56.950Z,47.30
2017-10-19T14:37:25.261Z,47.80
2017-10-19T14:39:54.268Z,47.10
2017-10-19T14:42:22.573Z,47.00
2017-10-19T14:44:53.071Z,49.60
2017-10-19T14:47:26.292Z,50.20
2017-10-19T14:49:55.506Z,51.40
2017-10-19T14:52:25.852Z,49.00
2017-10-19T14:54:58.724Z,49.00
2017-10-19T14:57:29.200Z,49.30
2017-10-19T15:00:01.289Z,49.90
2017-10-19T15:02:29.664Z,52.60
2017-10-19T15:04:57.984Z,50.30
2017-10-19T15:07:27.074Z,49.40
2017-10-19T15:09:55.374Z,49.40
2017-10-19T15:12:23.744Z,50.20
2017-10-19T15:14:52.061Z,50.60
2017-10-19T15:17:22.921Z,51.20
2017-10-19T15:19:51.906Z,51.20
2017-10-19T15:22:34.114Z,53.00
2017-10-19T15:28:01.102Z,52.50
2017-10-19T15:30:30.201Z,53.10
2017-10-19T15:32:58.675Z,53.10
2017-10-19T15:35:27.001Z,51.10
2017-10-19T15:37:55.294Z,52.40
2017-10-19T15:40:23.610Z,54.60
2017-10-19T15:42:51.937Z,53.20
2017-10-19T15:45:20.233Z,54.70
2017-10-19T15:47:49.582Z,57.30
2017-10-19T15:50:17.873Z,58.10
2017-10-19T15:52:46.214Z,57.70
2017-10-19T15:55:14.534Z,60.80
2017-10-19T15:57:43.616Z,58.30
2017-10-19T16:00:11.954Z,58.30
2017-10-19T16:02:46.921Z,58.90
2017-10-19T16:05:15.255Z,58.90
2017-10-19T16:07:43.562Z,59.00
2017-10-19T16:10:11.993Z,60.10
2017-10-19T16:12:41.087Z,62.90
2017-10-19T16:15:09.835Z,62.80
2017-10-19T16:20:18.352Z,61.20
2017-10-19T16:22:46.709Z,62.50
2017-10-19T16:25:15.130Z,63.90
2017-10-19T16:27:52.593Z,64.30
2017-10-19T16:30:21.740Z,63.70
2017-10-19T16:32:50.084Z,63.70
2017-10-19T16:35:18.421Z,67.60
2017-10-19T16:37:46.710Z,69.50
2017-10-19T16:40:15.340Z,67.80
2017-10-19T16:42:43.686Z,68.40
2017-10-19T16:45:12.314Z,71.30
2017-10-19T16:47:40.658Z,70.70
2017-10-19T16:50:08.971Z,71.70
2017-10-19T16:52:37.283Z,70.90
2017-10-19T16:55:05.620Z,72.10
2017-10-19T16:57:33.923Z,73.20
2017-10-19T17:00:02.595Z,73.60
2017-10-19T17:02:30.893Z,74.20
2017-10-19T17:04:59.258Z,73.20
2017-10-19T17:07:27.553Z,74.60
2017-10-19T17:09:56.611Z,77.70
2017-10-19T17:12:24.917Z,77.80
2017-10-19T17:14:53.254Z,78.50
2017-10-19T17:17:21.561Z,77.60
2017-10-19T17:19:49.898Z,77.30
2017-10-19T17:22:18.209Z,76.20
2017-10-19T17:24:47.303Z,80.60
2017-10-19T17:27:15.625Z,80.60
2017-10-19T17:29:43.943Z,81.20
2017-10-19T17:32:13.034Z,80.50
2017-10-19T17:34:42.000Z,80.40
2017-10-19T17:37:10.407Z,80.90
2017-10-19T17:39:39.951Z,81.70
2017-10-19T17:42:08.290Z,81.60
2017-10-19T17:44:36.602Z,81.80
2017-10-19T17:47:04.976Z,83.30
2017-10-19T17:49:34.087Z,83.40
2017-10-19T17:52:02.384Z,83.30
2017-10-19T17:54:30.777Z,84.10
2017-10-19T17:56:59.112Z,84.60
2017-10-19T17:59:27.442Z,84.10
2017-10-19T18:01:55.750Z,82.80
2017-10-19T18:04:24.109Z,83.20
2017-10-19T18:06:52.475Z,83.20
2017-10-19T18:09:20.819Z,83.40
2017-10-19T18:11:49.283Z,84.30
2017-10-19T18:14:17.624Z,82.80
2017-10-19T18:16:45.941Z,83.20
2017-10-19T18:19:15.054Z,84.30
2017-10-19T18:21:43.384Z,84.10
2017-10-19T18:24:11.855Z,84.50
2017-10-19T18:26:40.841Z,84.50
2017-10-19T18:29:09.150Z,85.90
2017-10-19T18:31:37.500Z,84.60
2017-10-19T18:34:05.823Z,84.80
2017-10-19T18:36:34.185Z,84.60
2017-10-19T18:39:02.505Z,84.60
2017-10-19T18:41:31.593Z,84.30
2017-10-19T18:43:59.957Z,84.20
2017-10-19T18:46:28.299Z,83.40
2017-10-19T18:48:56.654Z,85.10
2017-10-19T18:51:24.950Z,84.20
2017-10-19T18:53:54.034Z,84.10
2017-10-19T18:56:22.329Z,84.10
2017-10-19T18:58:50.649Z,84.50
2017-10-19T19:01:19.041Z,85.00
2017-10-19T19:03:47.389Z,85.10
2017-10-19T19:06:15.710Z,83.30
2017-10-19T19:08:44.014Z,83.80
2017-10-19T19:11:12.394Z,83.30
2017-10-19T19:13:40.717Z,82.40
2017-10-19T19:16:09.156Z,84.70
2017-10-19T19:18:37.506Z,85.20
2017-10-19T19:21:05.821Z,84.90
2017-10-19T19:23:34.286Z,84.00
2017-10-19T19:26:02.609Z,83.60
2017-10-19T19:28:31.673Z,84.50
2017-10-19T19:31:00.809Z,84.20
2017-10-19T19:33:29.153Z,84.10
2017-10-19T19:35:57.455Z,84.10
2017-10-19T19:38:26.562Z,84.80
2017-10-19T19:40:54.862Z,84.90
2017-10-19T19:43:23.973Z,83.80
2017-10-19T19:45:52.320Z,83.70
2017-10-19T19:48:20.624Z,84.20
2017-10-19T19:50:48.957Z,84.60
2017-10-19T19:53:17.294Z,84.90
2017-10-19T19:55:45.637Z,85.10
2017-10-19T19:58:14.005Z,86.50
2017-10-19T20:00:42.341Z,87.20
2017-10-19T20:03:10.645Z,87.00
2017-10-19T20:05:38.962Z,87.30
2017-10-19T20:08:08.034Z,88.20
2017-10-19T20:10:36.354Z,88.20
2017-10-19T20:13:04.662Z,88.10
2017-10-19T20:15:32.988Z,89.10
2017-10-19T20:18:01.393Z,89.00
2017-10-19T20:20:30.460Z,89.40
2017-10-19T20:22:58.789Z,89.40
2017-10-19T20:25:27.217Z,89.20
2017-10-19T20:27:56.290Z,89.80
2017-10-19T20:30:24.637Z,89.80
2017-10-19T20:32:52.987Z,88.90
2017-10-19T20:35:21.298Z,88.60
2017-10-19T20:37:50.382Z,90.50
2017-10-19T20:40:18.746Z,90.40
2017-10-19T20:42:47.136Z,90.20
2017-10-19T20:45:15.470Z,89.80
2017-10-19T20:47:43.828Z,90.10
2017-10-19T20:50:12.983Z,90.00
2017-10-19T20:52:41.570Z,89.90
2017-10-19T20:55:09.902Z,90.60
2017-10-19T20:57:38.218Z,90.40
2017-10-19T21:00:08.223Z,91.50
2017-10-19T21:02:36.517Z,92.30
2017-10-19T21:05:05.611Z,93.00
2017-10-19T21:07:34.039Z,92.90
2017-10-19T21:10:02.340Z,93.70
2017-10-19T21:12:30.714Z,93.40
2017-10-19T21:14:59.036Z,92.50
2017-10-19T21:17:27.385Z,92.50
2017-10-19T21:19:55.722Z,92.50
2017-10-19T21:22:24.033Z,91.60
2017-10-19T21:24:53.223Z,91.20
2017-10-19T21:27:22.015Z,91.10
2017-10-19T21:29:50.414Z,91.50
2017-10-19T21:32:18.809Z,92.00
2017-10-19T21:34:47.890Z,92.90
2017-10-19T21:37:16.977Z,93.60
2017-10-19T21:39:45.302Z,93.60
2017-10-19T21:42:13.601Z,93.20
2017-10-19T21:44:41.916Z,93.20
2017-10-19T21:47:10.237Z,93.20
2017-10-19T21:49:38.569Z,93.80
2017-10-19T21:52:08.649Z,93.60
2017-10-19T21:54:37.843Z,94.60
2017-10-19T21:57:06.185Z,94.00
2017-10-19T21:59:34.638Z,93.50
2017-10-19T22:02:03.015Z,92.90
2017-10-19T22:04:31.328Z,92.60
2017-10-19T22:06:59.643Z,93.10
2017-10-19T22:09:27.937Z,93.80
2017-10-19T22:11:56.293Z,93.60
2017-10-19T22:14:24.782Z,93.60
2017-10-19T22:16:53.918Z,94.10
2017-10-19T22:19:22.233Z,94.00
2017-10-19T22:21:50.574Z,94.60
2017-10-19T22:24:18.890Z,95.00
2017-10-19T22:26:47.978Z,96.90
2017-10-19T22:29:16.290Z,96.90
2017-10-19T22:31:44.618Z,96.70
2017-10-19T22:34:12.957Z,96.80
2017-10-19T22:36:41.284Z,96.70
2017-10-19T22:39:09.621Z,96.70
2017-10-19T22:41:37.947Z,96.50
2017-10-19T22:44:06.257Z,96.70
2017-10-19T22:46:34.553Z,97.00
2017-10-19T22:49:03.374Z,98.00
2017-10-19T22:51:31.674Z,97.80
2017-10-19T22:53:59.983Z,98.50
2017-10-19T22:56:28.281Z,97.80
2017-10-19T22:58:57.365Z,97.30
2017-10-19T23:01:25.671Z,97.10
2017-10-19T23:03:54.019Z,96.60
2017-10-19T23:06:22.314Z,96.90
2017-10-19T23:08:50.633Z,96.00
2017-10-19T23:11:19.729Z,96.20
2017-10-19T23:13:48.020Z,96.10
2017-10-19T23:16:16.330Z,96.70
2017-10-19T23:18:44.664Z,97.00
2017-10-19T23:21:13.047Z,97.00
2017-10-19T23:23:41.444Z,96.70
2017-10-19T23:26:09.815Z,96.90
2017-10-19T23:28:38.166Z,97.40
2017-10-19T23:31:06.466Z,97.60
2017-10-19T23:33:34.795Z,97.40
2017-10-19T23:36:03.115Z,97.00
2017-10-19T23:38:31.425Z,96.70
2017-10-19T23:40:59.819Z,95.20
2017-10-19T23:43:28.126Z,95.90
2017-10-19T23:45:56.439Z,96.30
2017-10-19T23:48:25.511Z,96.70
2017-10-19T23:50:54.076Z,97.10
2017-10-19T23:53:22.423Z,98.00
2017-10-19T23:55:50.768Z,98.60
2017-10-19T23:58:19.866Z,98.60
